createdAt,value
2022-10-21T00:00:12.695Z,153907.91
2022-10-21T00:02:41.862Z,153863.75
2022-10-21T00:05:10.022Z,153880.59
2022-10-21T00:07:37.924Z,153848.22
2022-10-21T00:10:07.007Z,153861.16
2022-10-21T00:12:35.795Z,153868.94
2022-10-21T00:15:04.135Z,153874.13
2022-10-21T00:17:32.158Z,153866.34
2022-10-21T00:20:01.155Z,153856.00
2022-10-21T00:22:29.530Z,153852.09
2022-10-21T00:24:57.144Z,153828.75
2022-10-21T00:27:25.163Z,153833.97
2022-10-21T00:29:52.951Z,153836.56
2022-10-21T00:32:20.817Z,153832.69
2022-10-21T00:34:48.526Z,153796.38
2022-10-21T00:37:18.281Z,153833.97
2022-10-21T00:39:46.365Z,153821.03
2022-10-21T00:42:16.984Z,153823.63
2022-10-21T00:44:45.246Z,153831.34
2022-10-21T00:47:18.603Z,153839.16
2022-10-21T00:50:00.143Z,153844.34
2022-10-21T00:52:31.096Z,153826.16
2022-10-21T00:55:01.922Z,153818.41
2022-10-21T00:57:32.122Z,153810.63
2022-10-21T01:00:03.659Z,153824.88
2022-10-21T01:02:31.503Z,153793.78
2022-10-21T01:05:02.153Z,153745.88
2022-10-21T01:07:31.264Z,153796.38
2022-10-21T01:09:59.336Z,153789.91
2022-10-21T01:12:36.313Z,153770.47
2022-10-21T01:15:11.247Z,153770.47
2022-10-21T01:17:49.812Z,153760.13
2022-10-21T01:21:02.279Z,153778.25
2022-10-21T01:23:53.067Z,153775.66
2022-10-21T01:26:49.720Z,153774.38
2022-10-21T01:29:45.366Z,153766.59
2022-10-21T01:32:21.835Z,153757.53
2022-10-21T01:34:57.457Z,153748.47
2022-10-21T01:37:31.569Z,153738.06
2022-10-21T01:40:07.024Z,153756.19
2022-10-21T01:42:40.942Z,153743.28
2022-10-21T01:45:15.846Z,153731.59
2022-10-21T01:47:49.095Z,153743.28
2022-10-21T01:50:20.847Z,153722.53
2022-10-21T01:52:52.477Z,153709.56
2022-10-21T01:55:23.039Z,153700.50
2022-10-21T01:57:55.713Z,153664.25
2022-10-21T02:02:59.393Z,153612.44
2022-10-21T02:05:31.286Z,153590.41
2022-10-21T02:07:59.211Z,153563.19
2022-10-21T02:10:30.562Z,153569.69
2022-10-21T02:13:01.554Z,153547.59
2022-10-21T02:15:31.279Z,153550.22
2022-10-21T02:18:05.987Z,153521.75
2022-10-21T02:20:37.996Z,153493.25
2022-10-21T02:23:07.143Z,153464.78
2022-10-21T02:25:39.516Z,153458.31
2022-10-21T02:28:08.531Z,153412.97
2022-10-21T02:30:45.527Z,153411.72
2022-10-21T02:33:21.042Z,153412.97
2022-10-21T02:36:03.200Z,153400.06
2022-10-21T02:38:38.543Z,153398.75
2022-10-21T02:41:09.845Z,153362.53
2022-10-21T02:43:41.392Z,153336.66
2022-10-21T02:46:11.499Z,153291.34
2022-10-21T02:48:44.306Z,153268.03
2022-10-21T02:51:12.388Z,153271.91
2022-10-21T02:53:40.127Z,153238.28
2022-10-21T02:56:08.618Z,153251.22
2022-10-21T02:58:36.315Z,153242.16
2022-10-21T03:01:04.362Z,153211.09
2022-10-21T03:03:32.213Z,153194.25
2022-10-21T03:06:01.211Z,153180.03
2022-10-21T03:08:28.979Z,153163.22
2022-10-21T03:10:56.928Z,153152.84
2022-10-21T03:13:24.739Z,153132.16
2022-10-21T03:15:52.797Z,153090.78
2022-10-21T03:18:20.547Z,153107.59
2022-10-21T03:20:49.881Z,153054.53
2022-10-21T03:23:18.901Z,153077.81
2022-10-21T03:25:46.625Z,153052.00
2022-10-21T03:28:14.917Z,153049.41
2022-10-21T03:30:42.651Z,153054.53
2022-10-21T03:33:10.324Z,153054.53
2022-10-21T03:35:38.030Z,153045.50
2022-10-21T03:38:05.932Z,153050.69
2022-10-21T03:40:35.039Z,153125.69
2022-10-21T03:43:02.605Z,153161.88
2022-10-21T03:45:30.237Z,153204.59
2022-10-21T03:47:57.865Z,153212.41
2022-10-21T03:50:26.855Z,153231.84
2022-10-21T03:52:55.480Z,153261.59
2022-10-21T03:55:25.196Z,153279.69
2022-10-21T03:57:54.910Z,153302.97
2022-10-21T04:00:24.365Z,153339.22
2022-10-21T04:02:53.844Z,153339.22
2022-10-21T04:05:21.686Z,153343.09
2022-10-21T04:07:52.966Z,153357.34
2022-10-21T04:10:21.524Z,153362.53
2022-10-21T04:12:49.160Z,153356.03
2022-10-21T04:15:18.766Z,153349.56
2022-10-21T04:17:46.949Z,153318.50
2022-10-21T04:20:15.240Z,153344.38
2022-10-21T04:22:42.939Z,153357.34
2022-10-21T04:25:10.792Z,153339.22
2022-10-21T04:27:38.625Z,153353.47
2022-10-21T04:30:07.631Z,153327.59
2022-10-21T04:32:38.123Z,153348.28
2022-10-21T04:35:06.695Z,153309.44
2022-10-21T04:37:34.467Z,153334.03
2022-10-21T04:40:02.238Z,153357.34
2022-10-21T04:42:30.074Z,153369.00
2022-10-21T04:44:57.762Z,153381.91
2022-10-21T04:47:25.616Z,153428.50
2022-10-21T04:49:54.776Z,153437.59
2022-10-21T04:52:22.475Z,153451.81
2022-10-21T04:54:50.139Z,153504.91
2022-10-21T04:57:17.824Z,153534.69
2022-10-21T04:59:45.491Z,153521.75
2022-10-21T05:02:13.764Z,153520.44
2022-10-21T05:04:41.557Z,153476.41
2022-10-21T05:07:11.948Z,153493.25
2022-10-21T05:09:39.815Z,153556.72
2022-10-21T05:12:07.525Z,153530.81
2022-10-21T05:14:35.297Z,153543.75
2022-10-21T05:17:03.081Z,153567.09
2022-10-21T05:19:31.507Z,153560.59
2022-10-21T05:21:59.363Z,153567.09
2022-10-21T05:24:28.606Z,153568.41
2022-10-21T05:26:56.396Z,153558.00
2022-10-21T05:29:24.197Z,153559.25
2022-10-21T05:31:51.854Z,153548.94
2022-10-21T05:34:19.833Z,153559.25
2022-10-21T05:36:48.651Z,153565.81
2022-10-21T05:39:16.513Z,153563.19
2022-10-21T05:41:47.889Z,153574.88
2022-10-21T05:44:16.166Z,153561.84
2022-10-21T05:46:43.899Z,153569.69
2022-10-21T05:49:11.547Z,153574.88
2022-10-21T05:51:39.356Z,153571.00
2022-10-21T05:54:07.122Z,153560.59
2022-10-21T05:56:34.865Z,153564.50
2022-10-21T05:59:06.610Z,153521.75
2022-10-21T06:01:37.428Z,153567.09
2022-10-21T06:04:05.420Z,153550.22
2022-10-21T06:06:33.333Z,153567.09
2022-10-21T06:09:01.113Z,153599.47
2022-10-21T06:11:28.895Z,153590.41
2022-10-21T06:13:56.584Z,153591.72
2022-10-21T06:16:25.630Z,153572.28
2022-10-21T06:18:53.416Z,153564.50
2022-10-21T06:21:21.150Z,153539.88
2022-10-21T06:23:48.793Z,153530.81
2022-10-21T06:26:17.623Z,153507.50
2022-10-21T06:28:45.787Z,153508.78
2022-10-21T06:31:15.802Z,153497.13
2022-10-21T06:33:45.245Z,153501.00
2022-10-21T06:36:12.957Z,153435.00
2022-10-21T06:38:40.643Z,153471.25
2022-10-21T06:41:13.053Z,153476.41
2022-10-21T06:43:42.127Z,153482.88
2022-10-21T06:46:11.537Z,153491.94
2022-10-21T06:48:39.353Z,153477.69
2022-10-21T06:51:10.718Z,153507.50
2022-10-21T06:53:39.377Z,153489.34
2022-10-21T06:56:09.158Z,153512.66
2022-10-21T06:58:37.859Z,153512.66
2022-10-21T07:01:16.700Z,153532.09
2022-10-21T07:03:56.016Z,153526.91
2022-10-21T07:06:25.190Z,153501.00
2022-10-21T07:09:00.042Z,153572.28
2022-10-21T07:11:28.158Z,153567.09
2022-10-21T07:13:56.118Z,153585.22
2022-10-21T07:16:25.409Z,153574.88
2022-10-21T07:18:53.545Z,153629.28
2022-10-21T07:21:23.411Z,153643.53
2022-10-21T07:23:54.732Z,153638.34
2022-10-21T07:26:26.078Z,153661.66
2022-10-21T07:28:55.461Z,153670.72
2022-10-21T07:31:23.370Z,153650.00
2022-10-21T07:33:51.240Z,153694.03
2022-10-21T07:36:22.136Z,153717.34
2022-10-21T07:38:54.472Z,153743.28
2022-10-21T07:41:23.634Z,153765.25
2022-10-21T07:43:52.486Z,153761.38
2022-10-21T07:46:21.878Z,153776.91
2022-10-21T07:48:50.327Z,153789.91
2022-10-21T07:51:20.201Z,153804.16
2022-10-21T07:53:49.481Z,153817.09
2022-10-21T07:56:21.212Z,153823.63
2022-10-21T07:58:49.239Z,153805.44
2022-10-21T08:01:18.664Z,153830.09
2022-10-21T08:03:46.975Z,153835.28
2022-10-21T08:06:16.570Z,153857.28
2022-10-21T08:08:45.327Z,153865.06
2022-10-21T08:11:13.537Z,153876.72
2022-10-21T08:13:43.076Z,153893.66
2022-10-21T08:16:10.828Z,153903.97
2022-10-21T08:18:38.536Z,153927.31
2022-10-21T08:21:06.405Z,153938.97
2022-10-21T08:23:34.065Z,153937.72
2022-10-21T08:26:02.039Z,153958.44
2022-10-21T08:28:31.727Z,153889.72
2022-10-21T08:31:08.371Z,153968.81
2022-10-21T08:33:36.707Z,153962.31
2022-10-21T08:36:07.095Z,153961.03
2022-10-21T08:38:35.153Z,153961.03
2022-10-21T08:41:03.462Z,153920.84
2022-10-21T08:43:34.373Z,153957.16
2022-10-21T08:46:05.624Z,153927.31
2022-10-21T08:48:40.573Z,153916.97
2022-10-21T08:51:16.702Z,153954.56
2022-10-21T08:53:49.011Z,153971.38
2022-10-21T08:56:19.978Z,153971.38
2022-10-21T08:58:50.699Z,153981.78
2022-10-21T09:01:23.358Z,153992.16
2022-10-21T09:04:00.853Z,153973.97
2022-10-21T09:06:35.401Z,153972.69
2022-10-21T09:09:11.315Z,153996.03
2022-10-21T09:11:50.422Z,153981.78
2022-10-21T09:14:44.168Z,153984.38
2022-10-21T09:17:26.277Z,153990.84
2022-10-21T09:20:03.136Z,153972.69
2022-10-21T09:22:53.824Z,153984.38
2022-10-21T09:25:25.216Z,153984.38
2022-10-21T09:27:57.372Z,153940.31
2022-10-21T09:30:26.107Z,153984.38
2022-10-21T09:32:58.430Z,153968.81
2022-10-21T09:35:34.986Z,153964.91
2022-10-21T09:38:11.774Z,153942.91
2022-10-21T09:40:39.749Z,153944.19
2022-10-21T09:43:17.794Z,153933.78
2022-10-21T09:45:47.155Z,153935.09
2022-10-21T09:48:26.673Z,153941.56
2022-10-21T09:50:59.743Z,153876.72
2022-10-21T09:53:30.648Z,153909.19
2022-10-21T09:56:03.985Z,153859.88
2022-10-21T09:58:47.309Z,153888.44
2022-10-21T10:01:20.825Z,153919.56
2022-10-21T10:03:51.216Z,153858.59
2022-10-21T10:06:36.685Z,153827.50
2022-10-21T10:09:17.565Z,153830.09
2022-10-21T10:11:55.905Z,153913.06
2022-10-21T10:14:30.135Z,153854.69
2022-10-21T10:16:59.000Z,153883.22
2022-10-21T10:19:29.292Z,153896.25
2022-10-21T10:22:14.060Z,153849.50
2022-10-21T10:24:46.118Z,153878.00
2022-10-21T10:27:19.156Z,153809.34
2022-10-21T10:29:54.059Z,153885.84
2022-10-21T10:32:26.237Z,153910.44
2022-10-21T10:34:56.927Z,153909.19
2022-10-21T10:37:28.480Z,153891.06
2022-10-21T10:39:59.557Z,153891.06
2022-10-21T10:42:31.787Z,153876.72
2022-10-21T10:45:03.720Z,153894.91
2022-10-21T10:47:42.944Z,153867.66
2022-10-21T10:50:44.011Z,153862.47
2022-10-21T10:53:30.239Z,153826.16
2022-10-21T10:56:16.551Z,153914.38
2022-10-21T10:58:49.752Z,153857.28
2022-10-21T11:01:26.456Z,153885.84
2022-10-21T11:03:58.685Z,153872.81
2022-10-21T11:06:35.099Z,153932.50
2022-10-21T11:09:07.034Z,153878.00
2022-10-21T11:11:40.104Z,153858.59
2022-10-21T11:14:16.321Z,153906.59
2022-10-21T11:17:00.912Z,153914.38
2022-10-21T11:19:36.806Z,153919.56
2022-10-21T11:22:13.756Z,153922.13
2022-10-21T11:24:54.617Z,153824.88
2022-10-21T11:27:32.369Z,153867.66
2022-10-21T11:30:07.067Z,153872.81
2022-10-21T11:32:50.850Z,153839.16
2022-10-21T11:35:31.243Z,153897.50
2022-10-21T11:38:16.565Z,153862.47
2022-10-21T11:40:50.331Z,153901.38
2022-10-21T11:43:33.167Z,153903.97
2022-10-21T11:46:08.931Z,153903.97
2022-10-21T11:48:51.990Z,153950.66
2022-10-21T11:51:32.167Z,153955.84
2022-10-21T11:54:17.445Z,153941.56
2022-10-21T11:56:55.287Z,153996.03
2022-10-21T11:59:37.163Z,153966.22
2022-10-21T12:02:16.176Z,154025.84
2022-10-21T12:04:52.210Z,154040.09
2022-10-21T12:07:46.247Z,154077.72
2022-10-21T12:10:25.736Z,154076.44
2022-10-21T12:12:57.473Z,154063.44
2022-10-21T12:15:33.868Z,154072.53
2022-10-21T12:18:04.873Z,154080.31
2022-10-21T12:20:34.172Z,154062.16
2022-10-21T12:23:05.003Z,154116.59
2022-10-21T12:25:42.291Z,154137.38
2022-10-21T12:28:19.340Z,154121.78
2022-10-21T12:30:55.015Z,154197.06
2022-10-21T12:33:36.564Z,154246.38
2022-10-21T12:36:21.567Z,154311.22
2022-10-21T12:38:51.802Z,154342.38
2022-10-21T12:41:29.017Z,154331.97
2022-10-21T12:44:05.111Z,154335.91
2022-10-21T12:46:40.104Z,154359.25
2022-10-21T12:49:21.420Z,154402.09
2022-10-21T12:51:52.392Z,154428.06
2022-10-21T12:54:26.563Z,154499.47
2022-10-21T12:57:03.259Z,154515.03
2022-10-21T12:59:36.271Z,154568.28
2022-10-21T13:02:20.204Z,154629.31
2022-10-21T13:04:51.087Z,154653.97
2022-10-21T13:07:33.865Z,154621.50
2022-10-21T13:10:34.770Z,154651.38
2022-10-21T13:13:34.019Z,154626.72
2022-10-21T13:16:35.133Z,154648.75
2022-10-21T13:19:04.541Z,154638.41
2022-10-21T13:21:38.832Z,154674.75
2022-10-21T13:24:15.204Z,154604.63
2022-10-21T13:26:49.765Z,154626.72
2022-10-21T13:29:37.924Z,154652.69
2022-10-21T13:32:35.119Z,154617.63
2022-10-21T13:35:34.438Z,154633.19
2022-10-21T13:38:05.777Z,154625.41
2022-10-21T13:40:39.764Z,154605.94
2022-10-21T13:43:13.328Z,154570.91
2022-10-21T13:45:47.942Z,154556.63
2022-10-21T13:48:18.724Z,154552.69
2022-10-21T13:50:48.389Z,154582.59
2022-10-21T13:53:29.496Z,154583.84
2022-10-21T13:56:00.830Z,154608.56
2022-10-21T13:58:30.836Z,154550.06
2022-10-21T14:01:07.677Z,154529.31
2022-10-21T14:03:37.161Z,154515.03
2022-10-21T14:06:08.650Z,154561.75
2022-10-21T14:08:41.666Z,154594.25
2022-10-21T14:11:16.448Z,154565.69
2022-10-21T14:13:44.720Z,154599.41
2022-10-21T14:16:20.229Z,154559.22
2022-10-21T14:18:50.224Z,154573.44
2022-10-21T14:21:21.793Z,154577.38
2022-10-21T14:23:51.134Z,154599.41
2022-10-21T14:26:19.476Z,154617.63
2022-10-21T14:28:48.560Z,154641.00
2022-10-21T14:31:16.636Z,154661.78
2022-10-21T14:33:46.871Z,154690.34
2022-10-21T14:36:20.379Z,154724.16
2022-10-21T14:38:58.698Z,154638.41
2022-10-21T14:41:29.559Z,154653.97
2022-10-21T14:43:59.724Z,154651.38
2022-10-21T14:46:27.490Z,154602.03
2022-10-21T14:48:59.607Z,154605.94
2022-10-21T14:51:29.025Z,154564.38
2022-10-21T14:54:00.371Z,154538.41
2022-10-21T14:56:33.997Z,154555.28
2022-10-21T14:59:08.351Z,154522.84
2022-10-21T15:01:36.306Z,154495.59
2022-10-21T15:04:04.069Z,154526.72
2022-10-21T15:06:34.795Z,154546.19
2022-10-21T15:09:08.876Z,154538.41
2022-10-21T15:11:41.577Z,154586.47
2022-10-21T15:14:20.667Z,154602.03
2022-10-21T15:16:52.124Z,154563.09
2022-10-21T15:19:23.310Z,154566.97
2022-10-21T15:21:55.074Z,154559.22
2022-10-21T15:24:26.798Z,154577.38
2022-10-21T15:26:55.786Z,154550.06
2022-10-21T15:29:29.907Z,154543.59
2022-10-21T15:31:59.027Z,154521.56
2022-10-21T15:34:26.736Z,154533.25
2022-10-21T15:36:56.083Z,154531.91
2022-10-21T15:39:23.944Z,154541.00
2022-10-21T15:41:54.963Z,154541.00
2022-10-21T15:44:25.944Z,154550.06
2022-10-21T15:46:58.153Z,154499.47
2022-10-21T15:49:28.258Z,154508.56
2022-10-21T15:51:57.440Z,154460.56
2022-10-21T15:54:25.187Z,154477.38
2022-10-21T15:56:54.492Z,154456.63
2022-10-21T15:59:24.706Z,154443.63
2022-10-21T16:01:53.355Z,154424.13
2022-10-21T16:04:21.771Z,154408.56
2022-10-21T16:06:51.103Z,154399.50
2022-10-21T16:09:22.260Z,154398.16
2022-10-21T16:12:06.068Z,154398.16
2022-10-21T16:14:33.807Z,154386.50
2022-10-21T16:17:01.428Z,154370.94
2022-10-21T16:19:29.533Z,154361.88
2022-10-21T16:21:57.681Z,154329.44
2022-10-21T16:24:28.103Z,154326.84
2022-10-21T16:26:55.744Z,154319.03
2022-10-21T16:29:25.961Z,154303.47
2022-10-21T16:31:53.856Z,154293.06
2022-10-21T16:34:21.976Z,154269.72
2022-10-21T16:36:49.619Z,154251.56
2022-10-21T16:39:19.570Z,154263.25
2022-10-21T16:41:48.655Z,154248.97
2022-10-21T16:44:16.733Z,154216.56
2022-10-21T16:46:50.954Z,154213.94
2022-10-21T16:49:23.198Z,154225.63
2022-10-21T16:51:52.483Z,154207.47
2022-10-21T16:54:21.874Z,154164.59
2022-10-21T16:56:54.645Z,154188.00
2022-10-21T16:59:23.309Z,154152.94
2022-10-21T17:01:52.257Z,154156.81
2022-10-21T17:04:20.046Z,154099.78
2022-10-21T17:06:47.799Z,154146.47
2022-10-21T17:09:15.682Z,154104.94
2022-10-21T17:11:44.240Z,154077.72
2022-10-21T17:14:17.360Z,154060.84
2022-10-21T17:16:46.284Z,154049.19
2022-10-21T17:19:14.652Z,153986.97
2022-10-21T17:21:42.476Z,153993.44
2022-10-21T17:24:14.388Z,154005.09
2022-10-21T17:26:43.266Z,153984.38
2022-10-21T17:29:11.902Z,153937.72
2022-10-21T17:31:42.833Z,153911.78
2022-10-21T17:34:22.645Z,153883.22
2022-10-21T17:36:50.446Z,153859.88
2022-10-21T17:39:18.114Z,153844.34
2022-10-21T17:44:13.809Z,153798.97
2022-10-21T17:46:43.700Z,153806.75
2022-10-21T17:49:11.735Z,153779.53
2022-10-21T17:51:40.215Z,153740.66
2022-10-21T17:54:07.896Z,153761.38
2022-10-21T17:56:35.574Z,153766.59
2022-10-21T17:59:03.801Z,153726.41
2022-10-21T18:01:31.665Z,153703.09
2022-10-21T18:04:01.047Z,153691.44
2022-10-21T18:06:28.831Z,153684.97
2022-10-21T18:08:58.049Z,153694.03
2022-10-21T18:11:26.382Z,153670.72
2022-10-21T18:13:55.393Z,153659.06
2022-10-21T18:16:24.731Z,153640.94
2022-10-21T18:18:56.104Z,153617.63
2022-10-21T18:21:27.848Z,153615.03
2022-10-21T18:23:55.977Z,153571.00
2022-10-21T18:26:25.900Z,153573.56
2022-10-21T18:28:56.890Z,153556.72
2022-10-21T18:31:26.252Z,153537.28
2022-10-21T18:33:55.961Z,153526.91
2022-10-21T18:36:24.907Z,153449.25
2022-10-21T18:38:54.404Z,153485.47
2022-10-21T18:41:23.961Z,153447.94
2022-10-21T18:43:53.601Z,153473.84
2022-10-21T18:46:22.221Z,153463.44
2022-10-21T18:48:50.289Z,153449.25
2022-10-21T18:51:18.860Z,153464.78
2022-10-21T18:53:50.158Z,153442.75
2022-10-21T18:56:23.191Z,153437.59
2022-10-21T18:58:51.311Z,153459.59
2022-10-21T19:01:20.369Z,153469.97
2022-10-21T19:03:50.683Z,153471.25
2022-10-21T19:06:29.329Z,153446.66
2022-10-21T19:08:57.716Z,153415.59
2022-10-21T19:11:26.792Z,153428.50
2022-10-21T19:13:54.503Z,153453.13
2022-10-21T19:16:22.297Z,153460.91
2022-10-21T19:18:50.122Z,153472.56
2022-10-21T19:21:18.962Z,153481.63
2022-10-21T19:23:46.698Z,153534.69
2022-10-21T19:26:14.359Z,153535.97
2022-10-21T19:28:43.504Z,153530.81
2022-10-21T19:31:12.202Z,153582.66
2022-10-21T19:33:40.340Z,153568.41
2022-10-21T19:36:09.175Z,153587.81
2022-10-21T19:38:44.457Z,153618.91
2022-10-21T19:41:16.008Z,153603.38
2022-10-21T19:43:45.049Z,153611.13
2022-10-21T19:46:18.871Z,153638.34
2022-10-21T19:48:49.384Z,153585.22
2022-10-21T19:51:18.884Z,153594.31
2022-10-21T19:53:47.471Z,153580.06
2022-10-21T19:56:16.055Z,153569.69
2022-10-21T19:58:46.362Z,153554.13
2022-10-21T20:01:15.767Z,153506.19
2022-10-21T20:03:45.362Z,153520.44
2022-10-21T20:06:15.588Z,153538.56
2022-10-21T20:08:43.970Z,153493.25
2022-10-21T20:11:13.264Z,153502.31
2022-10-21T20:13:42.323Z,153468.63
2022-10-21T20:16:17.054Z,153455.72
2022-10-21T20:18:45.102Z,153473.84
2022-10-21T20:21:13.551Z,153442.75
2022-10-21T20:23:41.423Z,153447.94
2022-10-21T20:26:09.438Z,153464.78
2022-10-21T20:28:37.835Z,153459.59
2022-10-21T20:31:07.509Z,153451.81
2022-10-21T20:33:38.875Z,153473.84
2022-10-21T20:36:09.893Z,153479.03
2022-10-21T20:38:37.800Z,153457.00
2022-10-21T20:41:08.013Z,153511.38
2022-10-21T20:43:37.225Z,153466.03
2022-10-21T20:46:06.549Z,153485.47
2022-10-21T20:48:36.652Z,153532.09
2022-10-21T20:51:05.714Z,153525.63
2022-10-21T20:53:33.441Z,153506.19
2022-10-21T20:56:03.435Z,153491.94
2022-10-21T20:58:31.130Z,153455.72
2022-10-21T21:00:58.884Z,153440.16
2022-10-21T21:03:26.542Z,153450.53
2022-10-21T21:05:55.679Z,153437.59
2022-10-21T21:08:23.315Z,153429.81
2022-10-21T21:10:51.062Z,153414.31
2022-10-21T21:13:18.839Z,153411.72
2022-10-21T21:15:46.604Z,153415.59
2022-10-21T21:18:14.357Z,153423.38
2022-10-21T21:20:42.174Z,153466.03
2022-10-21T21:23:11.326Z,153489.34
2022-10-21T21:25:39.174Z,153481.63
2022-10-21T21:28:06.903Z,153471.25
2022-10-21T21:30:34.643Z,153466.03
2022-10-21T21:33:02.487Z,153440.16
2022-10-21T21:35:30.233Z,153425.97
2022-10-21T21:37:57.997Z,153409.13
2022-10-21T21:40:27.111Z,153396.16
2022-10-21T21:42:54.808Z,153297.78
2022-10-21T21:45:22.709Z,153352.16
2022-10-21T21:47:50.487Z,153331.44
2022-10-21T21:50:18.352Z,153302.97
2022-10-21T21:52:46.589Z,153293.91
2022-10-21T21:55:14.372Z,153271.91
2022-10-21T21:57:43.453Z,153261.59
2022-10-21T22:00:12.647Z,153236.97
2022-10-21T22:02:40.484Z,153227.94
2022-10-21T22:05:08.818Z,153227.94
2022-10-21T22:07:36.492Z,153171.00
2022-10-21T22:10:05.069Z,153194.25
2022-10-21T22:12:32.794Z,153209.81
2022-10-21T22:15:01.839Z,153209.81
2022-10-21T22:17:29.473Z,153147.72
2022-10-21T22:19:57.235Z,153119.25
2022-10-21T22:22:24.938Z,153160.63
2022-10-21T22:24:52.744Z,153119.25
2022-10-21T22:27:20.663Z,153119.25
2022-10-21T22:29:48.437Z,153068.78
2022-10-21T22:32:18.081Z,153089.47
2022-10-21T22:34:46.282Z,153073.94
2022-10-21T22:37:13.936Z,153079.13
2022-10-21T22:39:41.822Z,153018.38
2022-10-21T22:42:09.538Z,153072.69
2022-10-21T22:44:37.322Z,153032.59
2022-10-21T22:47:05.204Z,153053.28
2022-10-21T22:49:34.395Z,153026.13
2022-10-21T22:52:02.008Z,153049.41
2022-10-21T22:54:48.681Z,153014.50
2022-10-21T22:57:17.681Z,153026.13
2022-10-21T22:59:50.644Z,153039.03
2022-10-21T23:02:21.115Z,152971.81
2022-10-21T23:04:50.137Z,152953.72
2022-10-21T23:07:17.825Z,152983.47
2022-10-21T23:09:45.609Z,152987.31
2022-10-21T23:12:13.338Z,152982.13
2022-10-21T23:14:42.038Z,152986.03
2022-10-21T23:17:09.700Z,152998.94
2022-10-21T23:19:37.497Z,152986.03
2022-10-21T23:22:06.646Z,152961.47
2022-10-21T23:24:34.364Z,152956.31
2022-10-21T23:27:02.149Z,152945.97
2022-10-21T23:29:30.266Z,152899.44
2022-10-21T23:31:57.934Z,152945.97
2022-10-21T23:34:25.700Z,152957.59
2022-10-21T23:36:53.375Z,152958.88
2022-10-21T23:39:22.651Z,152922.69
2022-10-21T23:41:50.695Z,152953.72
2022-10-21T23:44:18.443Z,152969.22
2022-10-21T23:46:46.123Z,152969.22
2022-10-21T23:49:14.240Z,152902.03
2022-10-21T23:51:42.018Z,152925.28
2022-10-21T23:54:09.781Z,152907.19
2022-10-21T23:56:38.898Z,152960.19
2022-10-21T23:59:06.869Z,152947.22
